createdAt,value
2022-08-07T00:00:30.301Z,24.00
2022-08-07T00:03:10.971Z,23.96
2022-08-07T00:05:39.041Z,23.88
2022-08-07T00:08:07.872Z,23.83
2022-08-07T00:10:36.469Z,23.77
2022-08-07T00:13:25.508Z,23.74
2022-08-07T00:15:53.857Z,23.69
2022-08-07T00:18:25.341Z,23.64
2022-08-07T00:21:07.814Z,23.62
2022-08-07T00:23:36.919Z,23.57
2022-08-07T00:26:18.772Z,23.50
2022-08-07T00:28:57.537Z,23.49
2022-08-07T00:31:25.612Z,23.47
2022-08-07T00:34:05.150Z,23.43
2022-08-07T00:36:42.621Z,23.39
2022-08-07T00:39:16.368Z,23.37
2022-08-07T00:42:01.469Z,23.34
2022-08-07T00:44:41.276Z,23.31
2022-08-07T00:48:05.387Z,23.28
2022-08-07T00:50:20.637Z,23.25
2022-08-07T00:52:47.240Z,23.22
2022-08-07T00:55:17.503Z,23.18
2022-08-07T00:57:55.860Z,23.15
2022-08-07T01:00:24.385Z,23.12
2022-08-07T01:02:51.419Z,23.11
2022-08-07T01:05:20.351Z,23.08
2022-08-07T01:07:52.290Z,23.04
2022-08-07T01:10:20.366Z,23.00
2022-08-07T01:12:54.030Z,22.97
2022-08-07T01:16:01.169Z,22.93
2022-08-07T01:18:16.812Z,22.88
2022-08-07T01:21:03.863Z,22.84
2022-08-07T01:23:46.660Z,22.78
2022-08-07T01:26:17.063Z,22.76
2022-08-07T01:28:50.987Z,22.73
2022-08-07T01:31:42.506Z,22.70
2022-08-07T01:34:13.986Z,22.64
2022-08-07T01:36:44.001Z,22.59
2022-08-07T01:39:16.760Z,22.54
2022-08-07T01:42:07.518Z,22.51
2022-08-07T01:44:37.913Z,22.47
2022-08-07T01:48:16.657Z,22.43
2022-08-07T01:49:53.680Z,22.38
2022-08-07T01:52:25.936Z,22.36
2022-08-07T01:54:56.005Z,22.33
2022-08-07T01:57:33.621Z,22.30
2022-08-07T02:00:28.999Z,22.25
2022-08-07T02:03:19.381Z,22.21
2022-08-07T02:06:00.840Z,22.18
2022-08-07T02:08:39.925Z,22.14
2022-08-07T02:11:10.639Z,22.10
2022-08-07T02:14:02.653Z,22.06
2022-08-07T02:16:33.929Z,22.02
2022-08-07T02:20:07.241Z,21.99
2022-08-07T02:21:57.784Z,21.98
2022-08-07T02:24:29.576Z,21.94
2022-08-07T02:27:01.465Z,21.94
2022-08-07T02:29:32.707Z,21.92
2022-08-07T02:32:04.982Z,21.90
2022-08-07T02:34:37.248Z,21.87
2022-08-07T02:37:18.261Z,21.82
2022-08-07T02:40:02.546Z,21.73
2022-08-07T02:42:36.388Z,21.70
2022-08-07T02:46:00.680Z,21.69
2022-08-07T02:47:55.078Z,21.69
2022-08-07T02:50:26.472Z,21.67
2022-08-07T02:53:11.459Z,21.66
2022-08-07T02:56:03.536Z,21.64
2022-08-07T02:58:36.895Z,21.62
2022-08-07T03:01:16.055Z,21.60
2022-08-07T03:03:50.455Z,21.56
2022-08-07T03:06:34.580Z,21.54
2022-08-07T03:09:06.985Z,21.52
2022-08-07T03:11:52.249Z,21.44
2022-08-07T03:14:27.752Z,21.41
2022-08-07T03:16:56.808Z,21.40
2022-08-07T03:19:29.008Z,21.40
2022-08-07T03:21:58.707Z,21.40
2022-08-07T03:24:28.083Z,21.39
2022-08-07T03:27:04.423Z,21.38
2022-08-07T03:29:50.463Z,21.38
2022-08-07T03:32:25.310Z,21.37
2022-08-07T03:35:01.034Z,21.36
2022-08-07T03:37:55.119Z,21.33
2022-08-07T03:40:36.239Z,21.30
2022-08-07T03:43:13.584Z,21.28
2022-08-07T03:45:43.691Z,21.25
2022-08-07T03:48:16.202Z,21.25
2022-08-07T03:50:52.128Z,21.26
2022-08-07T03:53:49.984Z,21.31
2022-08-07T03:56:33.553Z,21.34
2022-08-07T03:59:08.707Z,21.38
2022-08-07T04:01:43.042Z,21.47
2022-08-07T04:04:11.281Z,21.57
2022-08-07T04:06:50.858Z,21.63
2022-08-07T04:09:23.252Z,21.71
2022-08-07T04:12:24.346Z,21.79
2022-08-07T04:14:46.091Z,21.93
2022-08-07T04:17:21.090Z,22.05
2022-08-07T04:19:55.187Z,22.17
2022-08-07T04:22:29.638Z,22.27
2022-08-07T04:25:02.273Z,22.35
2022-08-07T04:27:35.867Z,22.48
2022-08-07T04:30:20.940Z,22.61
2022-08-07T04:32:59.322Z,22.75
2022-08-07T04:35:35.275Z,22.89
2022-08-07T04:38:11.513Z,23.02
2022-08-07T04:40:51.731Z,23.14
2022-08-07T04:44:11.344Z,23.26
2022-08-07T04:47:04.993Z,23.41
2022-08-07T04:50:17.066Z,23.54
2022-08-07T04:53:39.916Z,23.68
2022-08-07T04:58:15.844Z,23.80
2022-08-07T05:00:12.490Z,23.86
2022-08-07T05:02:43.894Z,24.02
2022-08-07T05:05:53.633Z,24.17
2022-08-07T05:09:46.303Z,24.28
2022-08-07T05:12:26.736Z,24.42
2022-08-07T05:15:15.687Z,24.50
2022-08-07T05:18:01.448Z,24.59
2022-08-07T05:20:43.156Z,24.71
2022-08-07T05:23:29.831Z,24.78
2022-08-07T05:26:11.505Z,24.86
2022-08-07T05:28:49.981Z,24.95
2022-08-07T05:31:21.688Z,25.05
2022-08-07T05:34:04.332Z,25.14
2022-08-07T05:36:35.807Z,25.21
2022-08-07T05:40:05.631Z,25.31
2022-08-07T05:42:01.862Z,25.42
2022-08-07T05:44:35.900Z,25.52
2022-08-07T05:47:17.845Z,25.59
2022-08-07T05:49:50.059Z,25.58
2022-08-07T05:52:32.405Z,25.67
2022-08-07T05:55:07.036Z,25.79
2022-08-07T05:57:42.426Z,25.91
2022-08-07T06:00:16.593Z,26.01
2022-08-07T06:02:51.738Z,26.14
2022-08-07T06:05:28.079Z,26.26
2022-08-07T06:08:29.144Z,26.35
2022-08-07T06:10:46.388Z,26.47
2022-08-07T06:13:19.855Z,26.60
2022-08-07T06:16:08.807Z,26.74
2022-08-07T06:18:39.763Z,26.85
2022-08-07T06:22:16.688Z,26.94
2022-08-07T06:24:53.033Z,27.04
2022-08-07T06:26:46.194Z,27.12
2022-08-07T06:29:14.574Z,27.15
2022-08-07T06:31:49.874Z,27.18
2022-08-07T06:34:19.679Z,27.25
2022-08-07T06:36:51.902Z,27.37
2022-08-07T06:40:17.323Z,27.51
2022-08-07T06:42:18.972Z,27.61
2022-08-07T06:45:06.619Z,27.68
2022-08-07T06:47:57.041Z,27.76
2022-08-07T06:50:30.449Z,27.85
2022-08-07T06:53:01.126Z,27.92
2022-08-07T06:55:52.621Z,28.03
2022-08-07T06:58:27.419Z,28.15
2022-08-07T07:01:07.015Z,28.25
2022-08-07T07:03:47.529Z,28.29
2022-08-07T07:06:24.006Z,28.28
2022-08-07T07:08:54.791Z,28.31
2022-08-07T07:12:08.310Z,28.32
2022-08-07T07:14:14.161Z,28.37
2022-08-07T07:16:49.697Z,28.38
2022-08-07T07:19:54.713Z,28.36
2022-08-07T07:22:36.322Z,28.38
2022-08-07T07:26:31.041Z,28.36
2022-08-07T07:28:42.507Z,28.32
2022-08-07T07:31:46.660Z,28.24
2022-08-07T07:34:21.225Z,28.25
2022-08-07T07:36:53.822Z,28.32
2022-08-07T07:39:25.465Z,28.44
2022-08-07T07:42:08.876Z,28.57
2022-08-07T07:44:49.737Z,28.68
2022-08-07T07:47:23.827Z,28.66
2022-08-07T07:50:36.039Z,28.67
2022-08-07T07:52:43.871Z,28.69
2022-08-07T07:55:17.411Z,28.74
2022-08-07T07:57:54.057Z,28.78
2022-08-07T08:00:29.361Z,28.82
2022-08-07T08:04:06.061Z,28.84
2022-08-07T08:06:11.633Z,28.84
2022-08-07T08:08:42.600Z,28.82
2022-08-07T08:11:13.825Z,28.79
2022-08-07T08:13:52.872Z,28.78
2022-08-07T08:16:50.621Z,28.84
2022-08-07T08:20:17.116Z,28.93
2022-08-07T08:22:32.748Z,28.95
2022-08-07T08:25:27.093Z,28.94
2022-08-07T08:28:16.797Z,28.95
2022-08-07T08:30:59.436Z,28.95
2022-08-07T08:33:36.357Z,28.94
2022-08-07T08:36:09.695Z,28.93
2022-08-07T08:38:43.319Z,29.01
2022-08-07T08:41:17.369Z,29.09
2022-08-07T08:44:07.463Z,29.10
2022-08-07T08:47:17.250Z,29.17
2022-08-07T08:50:34.964Z,29.23
2022-08-07T08:53:48.484Z,29.30
2022-08-07T08:56:47.615Z,29.39
2022-08-07T08:59:41.827Z,29.56
2022-08-07T09:02:37.934Z,29.69
2022-08-07T09:05:32.338Z,29.78
2022-08-07T09:08:08.962Z,29.90
2022-08-07T09:10:59.974Z,29.94
2022-08-07T09:14:06.678Z,29.99
2022-08-07T09:16:57.048Z,30.10
2022-08-07T09:20:24.933Z,30.18
2022-08-07T09:24:31.665Z,30.21
2022-08-07T09:27:13.415Z,30.27
2022-08-07T09:30:05.421Z,30.34
2022-08-07T09:33:41.334Z,30.38
2022-08-07T09:36:29.257Z,30.49
2022-08-07T09:39:54.017Z,30.63
2022-08-07T09:42:17.242Z,30.81
2022-08-07T09:47:52.194Z,31.00
2022-08-07T09:48:12.283Z,31.10
2022-08-07T09:50:53.608Z,31.16
2022-08-07T09:53:24.116Z,31.27
2022-08-07T09:56:57.338Z,31.36
2022-08-07T09:59:44.675Z,31.40
2022-08-07T10:04:05.602Z,31.43
2022-08-07T10:05:59.566Z,31.39
2022-08-07T10:09:09.404Z,31.33
2022-08-07T10:12:15.522Z,31.25
2022-08-07T10:15:04.633Z,31.20
2022-08-07T10:18:01.830Z,31.13
2022-08-07T10:21:19.499Z,31.01
2022-08-07T10:24:21.534Z,30.84
2022-08-07T10:27:12.196Z,30.68
2022-08-07T10:30:12.143Z,30.52
2022-08-07T10:33:14.771Z,30.39
2022-08-07T10:36:12.473Z,30.28
2022-08-07T10:39:15.492Z,30.15
2022-08-07T10:42:00.336Z,30.03
2022-08-07T10:44:45.558Z,29.96
2022-08-07T10:47:55.019Z,29.90
2022-08-07T10:50:42.063Z,29.91
2022-08-07T10:53:25.902Z,29.98
2022-08-07T10:56:11.156Z,30.05
2022-08-07T10:59:45.316Z,30.14
2022-08-07T11:02:39.938Z,30.32
2022-08-07T11:05:35.712Z,30.46
2022-08-07T11:08:54.320Z,30.58
2022-08-07T11:11:37.670Z,30.74
2022-08-07T11:14:43.411Z,30.88
2022-08-07T11:18:03.430Z,30.97
2022-08-07T11:20:45.756Z,31.14
2022-08-07T11:23:46.597Z,31.27
2022-08-07T11:26:33.234Z,31.37
2022-08-07T11:29:41.262Z,31.44
2022-08-07T11:32:25.409Z,31.56
2022-08-07T11:34:57.195Z,31.71
2022-08-07T11:38:10.278Z,31.79
2022-08-07T11:41:05.874Z,31.83
2022-08-07T11:44:10.561Z,31.85
2022-08-07T11:47:21.788Z,31.88
2022-08-07T11:50:34.714Z,31.81
2022-08-07T11:54:01.663Z,31.82
2022-08-07T11:57:15.306Z,31.82
2022-08-07T12:00:12.045Z,31.79
2022-08-07T12:03:44.207Z,31.79
2022-08-07T12:06:44.839Z,31.85
2022-08-07T12:09:33.518Z,31.89
2022-08-07T12:12:11.557Z,31.92
2022-08-07T12:14:44.305Z,31.86
2022-08-07T12:17:33.877Z,31.77
2022-08-07T12:20:30.284Z,31.68
2022-08-07T12:24:06.129Z,31.65
2022-08-07T12:27:13.256Z,31.70
2022-08-07T12:30:02.852Z,31.70
2022-08-07T12:32:39.521Z,31.72
2022-08-07T12:35:11.869Z,31.68
2022-08-07T12:38:09.261Z,31.63
2022-08-07T12:40:47.492Z,31.59
2022-08-07T12:44:02.414Z,31.56
2022-08-07T12:46:36.653Z,31.58
2022-08-07T12:49:44.774Z,31.60
2022-08-07T12:52:36.184Z,31.61
2022-08-07T12:55:17.484Z,31.66
2022-08-07T12:58:00.129Z,31.70
2022-08-07T13:01:00.265Z,31.73
2022-08-07T13:04:01.896Z,31.81
2022-08-07T13:06:54.492Z,31.91
2022-08-07T13:10:38.034Z,31.96
2022-08-07T13:13:48.363Z,31.99
2022-08-07T13:16:27.956Z,32.04
2022-08-07T13:19:21.838Z,32.08
2022-08-07T13:22:19.734Z,32.11
2022-08-07T13:25:00.236Z,32.12
2022-08-07T13:28:11.064Z,32.18
2022-08-07T13:30:43.840Z,32.20
2022-08-07T13:34:30.595Z,32.16
2022-08-07T13:36:25.763Z,32.12
2022-08-07T13:39:11.077Z,32.02
2022-08-07T13:41:54.618Z,31.95
2022-08-07T13:44:34.528Z,31.88
2022-08-07T13:47:09.188Z,31.79
2022-08-07T13:50:32.540Z,31.77
2022-08-07T13:52:41.020Z,31.76
2022-08-07T13:55:19.724Z,31.76
2022-08-07T13:58:27.456Z,31.81
2022-08-07T14:00:58.176Z,31.88
2022-08-07T14:04:05.160Z,31.94
2022-08-07T14:06:20.436Z,31.98
2022-08-07T14:08:53.660Z,32.01
2022-08-07T14:11:23.159Z,32.02
2022-08-07T14:13:56.135Z,31.95
2022-08-07T14:16:35.969Z,31.86
2022-08-07T14:19:17.870Z,31.78
2022-08-07T14:22:10.719Z,31.72
2022-08-07T14:24:50.798Z,31.65
2022-08-07T14:28:10.716Z,31.55
2022-08-07T14:30:32.506Z,31.40
2022-08-07T14:33:04.720Z,31.26
2022-08-07T14:35:44.499Z,31.12
2022-08-07T14:38:26.535Z,31.00
2022-08-07T14:44:10.022Z,30.74
2022-08-07T14:46:51.682Z,30.71
2022-08-07T14:49:58.111Z,30.74
2022-08-07T14:52:11.857Z,30.70
2022-08-07T14:54:45.361Z,30.65
2022-08-07T14:57:19.047Z,30.66
2022-08-07T15:00:05.383Z,30.68
2022-08-07T15:02:36.891Z,30.68
2022-08-07T15:05:19.824Z,30.67
2022-08-07T15:07:51.140Z,30.66
2022-08-07T15:13:25.463Z,30.58
2022-08-07T15:16:10.869Z,30.51
2022-08-07T15:18:47.033Z,30.45
2022-08-07T15:21:59.562Z,30.40
2022-08-07T15:25:12.958Z,30.40
2022-08-07T15:27:21.369Z,30.39
2022-08-07T15:33:03.941Z,30.28
2022-08-07T15:36:04.899Z,30.23
2022-08-07T15:38:51.005Z,30.14
2022-08-07T15:42:42.375Z,30.11
2022-08-07T15:44:14.461Z,30.08
2022-08-07T15:46:51.936Z,30.06
2022-08-07T15:50:05.021Z,30.01
2022-08-07T15:52:30.354Z,29.96
2022-08-07T15:55:02.989Z,29.89
2022-08-07T15:57:39.629Z,29.84
2022-08-07T16:00:31.417Z,29.82
2022-08-07T16:03:20.945Z,29.82
2022-08-07T16:06:06.760Z,29.84
2022-08-07T16:08:42.631Z,29.84
2022-08-07T16:12:12.245Z,29.87
2022-08-07T16:15:55.210Z,29.91
2022-08-07T16:18:49.557Z,29.88
2022-08-07T16:22:33.656Z,29.84
2022-08-07T16:25:52.502Z,29.82
2022-08-07T16:30:06.345Z,29.82
2022-08-07T16:31:51.754Z,29.78
2022-08-07T16:34:48.464Z,29.74
2022-08-07T16:38:05.527Z,29.67
2022-08-07T16:41:02.139Z,29.58
2022-08-07T16:44:31.789Z,29.50
2022-08-07T16:47:16.762Z,29.45
2022-08-07T16:50:26.819Z,29.40
2022-08-07T16:53:14.838Z,29.32
2022-08-07T16:56:05.384Z,29.23
2022-08-07T16:59:15.187Z,29.20
2022-08-07T17:02:13.310Z,29.13
2022-08-07T17:06:19.670Z,29.07
2022-08-07T17:09:08.763Z,28.96
2022-08-07T17:12:01.517Z,28.87
2022-08-07T17:14:51.591Z,28.78
2022-08-07T17:17:46.120Z,28.72
2022-08-07T17:20:41.109Z,28.66
2022-08-07T17:23:22.166Z,28.60
2022-08-07T17:26:51.047Z,28.56
2022-08-07T17:30:14.949Z,28.46
2022-08-07T17:32:56.888Z,28.37
2022-08-07T17:35:54.707Z,28.32
2022-08-07T17:38:34.141Z,28.27
2022-08-07T17:42:03.476Z,28.22
2022-08-07T17:44:33.783Z,28.15
2022-08-07T17:47:41.882Z,28.09
2022-08-07T17:50:54.040Z,28.03
2022-08-07T17:54:06.333Z,27.97
2022-08-07T17:56:49.840Z,27.91
2022-08-07T17:59:35.805Z,27.90
2022-08-07T18:02:53.887Z,27.84
2022-08-07T18:06:03.354Z,27.77
2022-08-07T18:09:00.575Z,27.73
2022-08-07T18:12:16.287Z,27.68
2022-08-07T18:14:59.601Z,27.65
2022-08-07T18:18:46.849Z,27.59
2022-08-07T18:21:06.591Z,27.53
2022-08-07T18:24:33.434Z,27.49
2022-08-07T18:27:17.986Z,27.45
2022-08-07T18:30:31.570Z,27.45
2022-08-07T18:33:12.019Z,27.44
2022-08-07T18:36:32.641Z,27.44
2022-08-07T18:40:08.055Z,27.42
2022-08-07T18:42:19.031Z,27.41
2022-08-07T18:45:44.659Z,27.39
2022-08-07T18:50:05.434Z,27.37
2022-08-07T18:52:35.031Z,27.37
2022-08-07T18:54:37.773Z,27.36
2022-08-07T18:57:36.804Z,27.35
2022-08-07T19:00:32.372Z,27.32
2022-08-07T19:03:37.865Z,27.32
2022-08-07T19:06:16.335Z,27.29
2022-08-07T19:08:55.797Z,27.26
2022-08-07T19:12:05.147Z,27.24
2022-08-07T19:16:05.526Z,27.20
2022-08-07T19:18:34.859Z,27.14
2022-08-07T19:21:47.621Z,27.08
2022-08-07T19:24:31.001Z,27.01
2022-08-07T19:28:30.745Z,26.93
2022-08-07T19:31:00.843Z,26.90
2022-08-07T19:33:02.584Z,26.86
2022-08-07T19:35:40.170Z,26.82
2022-08-07T19:38:16.132Z,26.75
2022-08-07T19:40:49.266Z,26.69
2022-08-07T19:43:49.977Z,26.62
2022-08-07T19:46:17.902Z,26.54
2022-08-07T19:48:53.582Z,26.47
2022-08-07T19:51:52.927Z,26.42
2022-08-07T19:54:33.414Z,26.40
2022-08-07T19:57:56.806Z,26.35
2022-08-07T20:00:08.829Z,26.27
2022-08-07T20:02:52.248Z,26.22
2022-08-07T20:05:29.241Z,26.19
2022-08-07T20:08:04.046Z,26.15
2022-08-07T20:10:54.272Z,26.13
2022-08-07T20:13:33.734Z,26.10
2022-08-07T20:16:03.929Z,26.06
2022-08-07T20:18:34.487Z,26.01
2022-08-07T20:21:21.080Z,25.94
2022-08-07T20:24:03.199Z,25.90
2022-08-07T20:26:45.134Z,25.84
2022-08-07T20:29:49.098Z,25.80
2022-08-07T20:32:23.091Z,25.75
2022-08-07T20:34:59.385Z,25.72
2022-08-07T20:37:55.526Z,25.67
2022-08-07T20:40:32.298Z,25.62
2022-08-07T20:43:09.692Z,25.58
2022-08-07T20:46:29.629Z,25.57
2022-08-07T20:48:42.230Z,25.52
2022-08-07T20:51:30.178Z,25.47
2022-08-07T20:54:12.159Z,25.41
2022-08-07T20:56:49.406Z,25.35
2022-08-07T21:00:05.460Z,25.32
2022-08-07T21:02:39.443Z,25.30
2022-08-07T21:05:18.239Z,25.29
2022-08-07T21:08:12.619Z,25.28
2022-08-07T21:10:42.655Z,25.25
2022-08-07T21:13:18.817Z,25.24
2022-08-07T21:16:00.985Z,25.22
2022-08-07T21:18:41.262Z,25.20
2022-08-07T21:21:16.821Z,25.17
2022-08-07T21:24:21.243Z,25.15
2022-08-07T21:27:12.664Z,25.13
2022-08-07T21:30:00.811Z,25.09
2022-08-07T21:33:01.851Z,25.06
2022-08-07T21:36:05.047Z,25.02
2022-08-07T21:39:05.534Z,24.99
2022-08-07T21:42:41.969Z,24.95
2022-08-07T21:46:11.145Z,24.92
2022-08-07T21:48:56.734Z,24.88
2022-08-07T21:51:51.753Z,24.84
2022-08-07T21:54:33.442Z,24.82
2022-08-07T21:57:52.381Z,24.80
2022-08-07T22:00:25.062Z,24.72
2022-08-07T22:03:31.191Z,24.69
2022-08-07T22:06:07.314Z,24.63
2022-08-07T22:09:10.392Z,24.58
2022-08-07T22:12:04.825Z,24.57
2022-08-07T22:14:59.729Z,24.55
2022-08-07T22:17:51.575Z,24.49
2022-08-07T22:20:37.315Z,24.46
2022-08-07T22:23:28.223Z,24.41
2022-08-07T22:26:22.744Z,24.36
2022-08-07T22:29:33.769Z,24.32
2022-08-07T22:32:29.632Z,24.29
2022-08-07T22:35:02.196Z,24.28
2022-08-07T22:38:03.693Z,24.26
2022-08-07T22:41:08.960Z,24.23
2022-08-07T22:43:56.247Z,24.17
2022-08-07T22:47:02.697Z,24.12
2022-08-07T22:49:57.084Z,24.10
2022-08-07T22:52:37.782Z,24.11
2022-08-07T22:55:42.690Z,24.11
2022-08-07T22:58:50.391Z,24.09
2022-08-07T23:02:00.960Z,24.07
2022-08-07T23:04:58.134Z,24.06
2022-08-07T23:08:07.275Z,24.04
2022-08-07T23:11:13.294Z,24.02
2022-08-07T23:14:15.624Z,24.03
2022-08-07T23:17:29.039Z,24.03
2022-08-07T23:20:40.421Z,24.02
2022-08-07T23:24:06.006Z,24.00
2022-08-07T23:26:18.751Z,24.00
2022-08-07T23:29:42.570Z,24.00
2022-08-07T23:34:18.928Z,24.00
2022-08-07T23:36:03.255Z,23.98
2022-08-07T23:38:43.239Z,23.97
2022-08-07T23:42:01.825Z,23.98
2022-08-07T23:45:33.391Z,23.98
2022-08-07T23:48:25.028Z,23.97
2022-08-07T23:53:01.037Z,23.97
2022-08-07T23:54:51.921Z,23.97
2022-08-07T23:57:34.766Z,23.96
